createdAt,value
2018-09-24T00:00:32.544Z,59.26
2018-09-24T00:01:32.618Z,59.28
2018-09-24T00:02:32.763Z,59.26
2018-09-24T00:03:32.735Z,59.25
2018-09-24T00:04:32.739Z,59.26
2018-09-24T00:05:32.883Z,59.19
2018-09-24T00:06:32.470Z,59.24
2018-09-24T00:07:32.740Z,59.27
2018-09-24T00:08:32.791Z,59.21
2018-09-24T00:09:32.660Z,59.25
2018-09-24T00:10:32.724Z,59.24
2018-09-24T00:11:32.732Z,59.24
2018-09-24T00:12:32.592Z,59.29
2018-09-24T00:13:32.694Z,59.24
2018-09-24T00:14:32.795Z,59.24
2018-09-24T00:15:32.911Z,59.24
2018-09-24T00:16:32.537Z,59.27
2018-09-24T00:17:32.876Z,59.22
2018-09-24T00:18:32.765Z,59.18
2018-09-24T00:19:32.713Z,59.21
2018-09-24T00:20:32.511Z,59.18
2018-09-24T00:21:32.687Z,59.22
2018-09-24T00:22:32.463Z,59.23
2018-09-24T00:23:32.568Z,59.21
2018-09-24T00:24:32.517Z,59.25
2018-09-24T00:25:32.691Z,59.26
2018-09-24T00:26:32.649Z,59.21
2018-09-24T00:27:32.467Z,59.24
2018-09-24T00:28:32.772Z,59.25
2018-09-24T00:29:32.669Z,59.24
2018-09-24T00:30:32.632Z,59.25
2018-09-24T00:31:32.661Z,59.25
2018-09-24T00:32:32.469Z,59.24
2018-09-24T00:33:32.695Z,59.31
2018-09-24T00:34:32.439Z,59.33
2018-09-24T00:35:32.671Z,59.27
2018-09-24T00:36:32.895Z,59.3
2018-09-24T00:37:32.564Z,59.3
2018-09-24T00:38:32.915Z,59.26
2018-09-24T00:39:32.642Z,59.24
2018-09-24T00:40:32.734Z,59.3
2018-09-24T00:41:32.553Z,59.2
2018-09-24T00:42:32.909Z,59.23
2018-09-24T00:43:33.329Z,59.27
2018-09-24T00:44:32.639Z,59.23
2018-09-24T00:45:32.749Z,59.23
2018-09-24T00:46:32.670Z,59.23
2018-09-24T00:47:32.781Z,59.21
2018-09-24T00:48:32.843Z,59.16
2018-09-24T00:49:32.451Z,59.23
2018-09-24T00:50:32.885Z,59.2
2018-09-24T00:51:32.885Z,59.22
2018-09-24T00:52:32.585Z,59.22
2018-09-24T00:53:32.869Z,59.17
2018-09-24T00:54:32.889Z,59.16
2018-09-24T00:55:32.717Z,59.17
2018-09-24T00:56:32.847Z,59.14
2018-09-24T00:57:32.721Z,59.17
2018-09-24T00:58:32.404Z,59.13
2018-09-24T00:59:32.658Z,59.15
2018-09-24T01:00:32.911Z,59.17
2018-09-24T01:01:32.671Z,59.2
2018-09-24T01:02:32.733Z,59.17
2018-09-24T01:03:32.552Z,59.16
2018-09-24T01:04:32.865Z,59.22
2018-09-24T01:05:32.960Z,59.17
2018-09-24T01:06:32.505Z,59.17
2018-09-24T01:07:32.685Z,59.22
2018-09-24T01:08:32.747Z,59.14
2018-09-24T01:09:32.814Z,59.17
2018-09-24T01:10:32.636Z,59.22
2018-09-24T01:11:32.776Z,59.17
2018-09-24T01:12:32.811Z,59.15
2018-09-24T01:13:32.557Z,59.19
2018-09-24T01:14:32.824Z,59.15
2018-09-24T01:15:32.979Z,59.17
2018-09-24T01:16:32.729Z,59.18
2018-09-24T01:17:32.452Z,59.16
2018-09-24T01:18:32.692Z,59.17
2018-09-24T01:19:32.729Z,59.19
2018-09-24T01:20:33.199Z,59.18
2018-09-24T01:21:32.903Z,59.17
2018-09-24T01:22:32.690Z,59.16
2018-09-24T01:23:32.797Z,59.16
2018-09-24T01:24:32.784Z,59.17
2018-09-24T01:25:32.476Z,59.18
2018-09-24T01:26:32.914Z,59.11
2018-09-24T01:27:32.671Z,59.1
2018-09-24T01:28:32.741Z,59.16
2018-09-24T01:29:32.890Z,59.13
2018-09-24T01:30:32.579Z,59.14
2018-09-24T01:31:32.859Z,59.19
2018-09-24T01:32:32.536Z,59.16
2018-09-24T01:33:33.132Z,59.17
2018-09-24T01:34:33.010Z,59.16
2018-09-24T01:35:32.850Z,59.16
2018-09-24T01:36:32.532Z,59.18
2018-09-24T01:37:32.790Z,59.16
2018-09-24T01:38:32.821Z,59.13
2018-09-24T01:39:32.808Z,59.17
2018-09-24T01:40:32.668Z,59.16
2018-09-24T01:41:32.863Z,59.17
2018-09-24T01:42:32.720Z,59.17
2018-09-24T01:43:32.588Z,59.2
2018-09-24T01:44:32.622Z,59.19
2018-09-24T01:45:33.053Z,59.17
2018-09-24T01:46:32.960Z,59.18
2018-09-24T01:47:32.522Z,59.16
2018-09-24T01:48:32.526Z,59.18
2018-09-24T01:49:32.716Z,59.2
2018-09-24T01:50:32.726Z,59.18
2018-09-24T01:51:32.751Z,59.2
2018-09-24T01:52:32.470Z,59.2
2018-09-24T01:53:32.634Z,59.17
2018-09-24T01:54:32.619Z,59.18
2018-09-24T01:55:32.380Z,59.2
2018-09-24T01:56:32.745Z,59.18
2018-09-24T01:57:32.560Z,59.21
2018-09-24T01:58:32.671Z,59.18
2018-09-24T01:59:32.622Z,59.19
2018-09-24T02:00:32.621Z,59.13
2018-09-24T02:01:32.534Z,59.2
2018-09-24T02:02:32.392Z,59.13
2018-09-24T02:03:32.990Z,59.15
2018-09-24T02:04:32.615Z,59.16
2018-09-24T02:05:32.683Z,59.15
2018-09-24T02:06:32.654Z,59.15
2018-09-24T02:07:32.714Z,59.2
2018-09-24T02:08:32.708Z,59.13
2018-09-24T02:09:32.545Z,59.13
2018-09-24T02:10:32.552Z,59.17
2018-09-24T02:11:32.576Z,59.1
2018-09-24T02:12:32.608Z,59.13
2018-09-24T02:13:32.644Z,59.12
2018-09-24T02:14:32.646Z,59.08
2018-09-24T02:15:32.792Z,59.07
2018-09-24T02:16:32.699Z,59.08
2018-09-24T02:17:32.458Z,59.06
2018-09-24T02:18:32.720Z,59.11
2018-09-24T02:19:32.883Z,59.09
2018-09-24T02:20:32.726Z,59.08
2018-09-24T02:21:32.825Z,59.07
2018-09-24T02:22:32.392Z,59.11
2018-09-24T02:23:32.512Z,59.06
2018-09-24T02:24:32.896Z,59.07
2018-09-24T02:25:32.725Z,59.06
2018-09-24T02:26:32.531Z,59.07
2018-09-24T02:27:32.950Z,59.04
2018-09-24T02:28:32.766Z,59.07
2018-09-24T02:29:32.525Z,59.09
2018-09-24T02:30:32.784Z,59.06
2018-09-24T02:31:32.394Z,59.12
2018-09-24T02:32:32.444Z,59.11
2018-09-24T02:33:32.782Z,59.07
2018-09-24T02:34:32.672Z,59.06
2018-09-24T02:35:32.628Z,59.12
2018-09-24T02:36:32.477Z,59.09
2018-09-24T02:37:32.857Z,59.13
2018-09-24T02:38:32.620Z,59.11
2018-09-24T02:39:32.436Z,59.08
2018-09-24T02:40:32.506Z,59.11
2018-09-24T02:41:32.635Z,59.09
2018-09-24T02:42:32.454Z,59.11
2018-09-24T02:43:32.663Z,59.1
2018-09-24T02:44:32.807Z,59.07
2018-09-24T02:45:32.761Z,59.1
2018-09-24T02:46:32.573Z,59.1
2018-09-24T02:47:32.531Z,59.08
2018-09-24T02:48:32.618Z,59.11
2018-09-24T02:49:32.523Z,59.15
2018-09-24T02:50:32.820Z,59.1
2018-09-24T02:51:32.521Z,59.06
2018-09-24T02:52:32.718Z,59.07
2018-09-24T02:53:32.742Z,59.1
2018-09-24T02:54:32.649Z,59.11
2018-09-24T02:55:32.772Z,59.07
2018-09-24T02:56:32.510Z,59.08
2018-09-24T02:57:32.993Z,59.09
2018-09-24T02:58:32.980Z,59.14
2018-09-24T02:59:32.655Z,59.08
2018-09-24T03:00:32.625Z,59.08
2018-09-24T03:01:32.494Z,59.09
2018-09-24T03:02:32.620Z,59.06
2018-09-24T03:03:33.064Z,59.09
2018-09-24T03:04:32.849Z,59.11
2018-09-24T03:05:32.523Z,59.02
2018-09-24T03:06:32.747Z,59.08
2018-09-24T03:07:32.469Z,59.08
2018-09-24T03:08:32.462Z,59.02
2018-09-24T03:09:32.562Z,59.02
2018-09-24T03:10:32.369Z,59.05
2018-09-24T03:11:32.445Z,59.02
2018-09-24T03:12:32.708Z,59.02
2018-09-24T03:13:32.384Z,59.02
2018-09-24T03:14:32.484Z,59.01
2018-09-24T03:15:32.465Z,59.01
2018-09-24T03:16:32.678Z,59
2018-09-24T03:17:32.601Z,58.99
2018-09-24T03:18:32.472Z,59.01
2018-09-24T03:19:32.692Z,59.02
2018-09-24T03:20:32.458Z,59.02
2018-09-24T03:21:32.598Z,59.02
2018-09-24T03:22:32.642Z,59.02
2018-09-24T03:23:32.478Z,58.99
2018-09-24T03:24:32.515Z,58.97
2018-09-24T03:25:32.576Z,59.04
2018-09-24T03:26:32.592Z,59
2018-09-24T03:27:32.678Z,59.03
2018-09-24T03:28:32.427Z,59.05
2018-09-24T03:29:32.412Z,58.97
2018-09-24T03:30:32.791Z,59.03
2018-09-24T03:31:32.652Z,59
2018-09-24T03:32:32.891Z,58.99
2018-09-24T03:33:32.812Z,58.98
2018-09-24T03:34:33.119Z,58.99
2018-09-24T03:35:32.648Z,59.01
2018-09-24T03:36:32.735Z,59.01
2018-09-24T03:37:32.780Z,59.02
2018-09-24T03:38:32.534Z,58.97
2018-09-24T03:39:32.505Z,59.03
2018-09-24T03:40:32.434Z,59.05
2018-09-24T03:41:32.863Z,59.04
2018-09-24T03:42:32.369Z,59.01
2018-09-24T03:43:32.905Z,59.04
2018-09-24T03:44:32.799Z,59.01
2018-09-24T03:45:32.599Z,59
2018-09-24T03:46:32.730Z,59.07
2018-09-24T03:47:32.642Z,59.04
2018-09-24T03:48:32.613Z,59.01
2018-09-24T03:49:32.506Z,59.05
2018-09-24T03:50:32.456Z,58.99
2018-09-24T03:51:32.390Z,58.98
2018-09-24T03:52:32.437Z,59.03
2018-09-24T03:53:32.404Z,58.99
2018-09-24T03:54:32.437Z,58.93
2018-09-24T03:55:32.743Z,58.99
2018-09-24T03:56:32.624Z,58.93
2018-09-24T03:57:32.480Z,58.96
2018-09-24T03:58:32.764Z,58.95
2018-09-24T03:59:32.473Z,58.93
2018-09-24T04:00:32.562Z,58.91
2018-09-24T04:01:32.524Z,58.97
2018-09-24T04:02:32.411Z,58.96
2018-09-24T04:03:32.868Z,58.96
2018-09-24T04:04:32.861Z,58.99
2018-09-24T04:05:32.676Z,58.99
2018-09-24T04:06:32.540Z,58.99
2018-09-24T04:07:32.379Z,59.01
2018-09-24T04:08:32.629Z,58.98
2018-09-24T04:09:33.335Z,59.01
2018-09-24T04:10:32.641Z,58.98
2018-09-24T04:11:32.535Z,58.98
2018-09-24T04:12:32.817Z,59
2018-09-24T04:13:32.475Z,59.05
2018-09-24T04:14:32.786Z,58.96
2018-09-24T04:15:32.599Z,58.99
2018-09-24T04:16:32.837Z,58.96
2018-09-24T04:17:32.878Z,58.92
2018-09-24T04:18:32.564Z,58.93
2018-09-24T04:19:34.323Z,58.95
2018-09-24T04:20:32.749Z,58.96
2018-09-24T04:21:32.501Z,58.93
2018-09-24T04:22:32.495Z,58.94
2018-09-24T04:23:32.686Z,58.97
2018-09-24T04:24:32.758Z,58.96
2018-09-24T04:25:32.402Z,58.97
2018-09-24T04:26:32.808Z,58.93
2018-09-24T04:27:32.788Z,58.9
2018-09-24T04:28:32.480Z,58.93
2018-09-24T04:29:32.457Z,58.89
2018-09-24T04:30:32.625Z,58.91
2018-09-24T04:31:32.551Z,58.95
2018-09-24T04:32:32.440Z,58.91
2018-09-24T04:33:32.427Z,58.91
2018-09-24T04:34:32.605Z,58.95
2018-09-24T04:35:32.403Z,58.95
2018-09-24T04:36:32.647Z,58.94
2018-09-24T04:37:32.558Z,59
2018-09-24T04:38:32.374Z,58.94
2018-09-24T04:39:34.025Z,58.95
2018-09-24T04:40:32.684Z,58.97
2018-09-24T04:41:32.602Z,58.94
2018-09-24T04:42:32.548Z,58.91
2018-09-24T04:43:32.652Z,58.91
2018-09-24T04:44:32.669Z,58.91
2018-09-24T04:45:32.616Z,58.87
2018-09-24T04:46:32.723Z,58.93
2018-09-24T04:47:32.514Z,58.88
2018-09-24T04:48:32.398Z,58.94
2018-09-24T04:49:32.531Z,58.92
2018-09-24T04:50:32.555Z,58.89
2018-09-24T04:51:32.706Z,58.86
2018-09-24T04:52:32.707Z,58.89
2018-09-24T04:53:32.854Z,58.85
2018-09-24T04:54:32.342Z,58.83
2018-09-24T04:55:32.624Z,58.9
2018-09-24T04:56:32.385Z,58.87
2018-09-24T04:57:32.504Z,58.84
2018-09-24T04:58:33.794Z,58.84
2018-09-24T04:59:32.398Z,58.79
2018-09-24T05:00:32.403Z,58.81
2018-09-24T05:01:32.778Z,58.86
2018-09-24T05:02:32.493Z,58.75
2018-09-24T05:03:32.866Z,58.81
2018-09-24T05:04:32.503Z,58.83
2018-09-24T05:05:32.507Z,58.84
2018-09-24T05:06:32.426Z,58.86
2018-09-24T05:07:32.838Z,58.81
2018-09-24T05:08:32.841Z,58.8
2018-09-24T05:09:32.730Z,58.84
2018-09-24T05:10:32.777Z,58.82
2018-09-24T05:11:32.437Z,58.77
2018-09-24T05:12:32.378Z,58.79
2018-09-24T05:13:32.693Z,58.88
2018-09-24T05:14:32.626Z,58.86
2018-09-24T05:15:32.586Z,58.83
2018-09-24T05:16:33.079Z,58.86
2018-09-24T05:17:32.536Z,58.89
2018-09-24T05:18:32.636Z,58.88
2018-09-24T05:19:32.405Z,58.89
2018-09-24T05:20:32.451Z,58.86
2018-09-24T05:21:32.440Z,58.87
2018-09-24T05:22:32.347Z,58.91
2018-09-24T05:23:32.531Z,58.89
2018-09-24T05:24:32.349Z,58.83
2018-09-24T05:25:32.496Z,58.88
2018-09-24T05:26:32.519Z,58.85
2018-09-24T05:27:32.501Z,58.82
2018-09-24T05:28:32.509Z,58.81
2018-09-24T05:29:32.736Z,58.83
2018-09-24T05:30:32.757Z,58.8
2018-09-24T05:31:32.472Z,58.89
2018-09-24T05:32:33.009Z,58.84
2018-09-24T05:33:32.502Z,58.84
2018-09-24T05:34:34.221Z,58.84
2018-09-24T05:35:32.689Z,58.85
2018-09-24T05:36:32.853Z,58.83
2018-09-24T05:37:32.921Z,58.88
2018-09-24T05:38:32.379Z,58.85
2018-09-24T05:39:32.422Z,58.85
2018-09-24T05:40:32.507Z,58.87
2018-09-24T05:41:32.810Z,58.85
2018-09-24T05:42:32.468Z,58.89
2018-09-24T05:43:32.579Z,58.88
2018-09-24T05:44:32.619Z,58.87
2018-09-24T05:45:32.633Z,58.85
2018-09-24T05:46:32.441Z,58.88
2018-09-24T05:47:32.459Z,58.79
2018-09-24T05:48:33.494Z,58.78
2018-09-24T05:49:32.470Z,58.81
2018-09-24T05:50:32.579Z,58.77
2018-09-24T05:51:32.476Z,58.77
2018-09-24T05:52:33.022Z,58.74
2018-09-24T05:53:32.452Z,58.77
2018-09-24T05:54:32.677Z,58.76
2018-09-24T05:55:32.428Z,58.78
2018-09-24T05:56:32.587Z,58.73
2018-09-24T05:57:32.448Z,58.71
2018-09-24T05:58:32.797Z,58.77
2018-09-24T05:59:32.421Z,58.74
2018-09-24T06:00:32.349Z,58.76
2018-09-24T06:01:32.571Z,58.8
2018-09-24T06:02:32.574Z,58.78
2018-09-24T06:03:32.490Z,58.74
2018-09-24T06:04:32.669Z,58.76
2018-09-24T06:05:32.619Z,58.77
2018-09-24T06:06:32.231Z,58.74
2018-09-24T06:07:32.408Z,58.75
2018-09-24T06:08:32.389Z,58.73
2018-09-24T06:09:32.457Z,58.76
2018-09-24T06:10:32.312Z,58.77
2018-09-24T06:11:32.585Z,58.71
2018-09-24T06:12:33.350Z,58.71
2018-09-24T06:13:33.093Z,58.71
2018-09-24T06:14:32.374Z,58.68
2018-09-24T06:15:32.431Z,58.74
2018-09-24T06:16:32.261Z,58.77
2018-09-24T06:17:32.572Z,58.77
2018-09-24T06:18:32.343Z,58.72
2018-09-24T06:19:32.456Z,58.79
2018-09-24T06:20:32.265Z,58.74
2018-09-24T06:21:32.609Z,58.77
2018-09-24T06:22:32.375Z,58.8
2018-09-24T06:23:33.016Z,58.77
2018-09-24T06:24:32.287Z,58.81
2018-09-24T06:25:32.890Z,58.86
2018-09-24T06:26:32.552Z,58.84
2018-09-24T06:27:32.394Z,58.82
2018-09-24T06:28:33.954Z,58.84
2018-09-24T06:29:32.440Z,58.8
2018-09-24T06:30:32.297Z,58.82
2018-09-24T06:31:32.852Z,58.8
2018-09-24T06:32:32.470Z,58.79
2018-09-24T06:33:32.694Z,58.77
2018-09-24T06:34:32.340Z,58.78
2018-09-24T06:35:32.553Z,58.78
2018-09-24T06:36:32.404Z,58.76
2018-09-24T06:37:32.459Z,58.79
2018-09-24T06:38:32.434Z,58.78
2018-09-24T06:39:32.391Z,58.8
2018-09-24T06:40:32.341Z,58.79
2018-09-24T06:41:32.530Z,58.77
2018-09-24T06:42:32.229Z,58.78
2018-09-24T06:43:32.403Z,58.76
2018-09-24T06:44:32.676Z,58.77
2018-09-24T06:45:32.501Z,58.74
2018-09-24T06:46:33.017Z,58.73
2018-09-24T06:47:32.458Z,58.79
2018-09-24T06:48:32.238Z,58.76
2018-09-24T06:49:33.211Z,58.73
2018-09-24T06:50:32.230Z,58.75
2018-09-24T06:51:32.468Z,58.73
2018-09-24T06:52:32.308Z,58.74
2018-09-24T06:53:32.762Z,58.75
2018-09-24T06:54:32.381Z,58.74
2018-09-24T06:55:32.468Z,58.74
2018-09-24T06:56:32.570Z,58.71
2018-09-24T06:57:32.457Z,58.68
2018-09-24T06:58:32.583Z,58.69
2018-09-24T06:59:33.403Z,58.68
2018-09-24T07:00:32.406Z,58.68
2018-09-24T07:01:32.518Z,58.7
2018-09-24T07:02:32.466Z,58.65
2018-09-24T07:03:32.757Z,58.66
2018-09-24T07:04:32.353Z,58.68
2018-09-24T07:05:34.031Z,58.65
2018-09-24T07:06:32.303Z,58.63
2018-09-24T07:07:32.535Z,58.66
2018-09-24T07:08:32.456Z,58.69
2018-09-24T07:09:32.689Z,58.69
2018-09-24T07:10:32.742Z,58.67
2018-09-24T07:11:32.498Z,58.66
2018-09-24T07:12:32.407Z,58.73
2018-09-24T07:13:32.573Z,58.7
2018-09-24T07:14:32.292Z,58.77
2018-09-24T07:15:32.463Z,58.91
2018-09-24T07:16:32.534Z,58.83
2018-09-24T07:17:32.707Z,58.73
2018-09-24T07:18:32.900Z,58.66
2018-09-24T07:19:32.662Z,58.7
2018-09-24T07:20:32.574Z,58.63
2018-09-24T07:21:33.700Z,58.69
2018-09-24T07:22:32.403Z,58.7
2018-09-24T07:23:32.579Z,58.67
2018-09-24T07:24:32.370Z,58.65
2018-09-24T07:25:32.449Z,58.65
2018-09-24T07:26:32.804Z,58.68
2018-09-24T07:27:33.147Z,58.67
2018-09-24T07:28:32.685Z,58.63
2018-09-24T07:29:32.568Z,58.64
2018-09-24T07:30:32.535Z,58.66
2018-09-24T07:31:32.740Z,58.68
2018-09-24T07:32:32.398Z,58.62
2018-09-24T07:33:32.381Z,58.65
2018-09-24T07:34:32.373Z,58.67
2018-09-24T07:35:32.622Z,58.62
2018-09-24T07:36:32.345Z,58.63
2018-09-24T07:37:32.568Z,58.62
2018-09-24T07:38:33.665Z,58.63
2018-09-24T07:39:32.551Z,58.67
2018-09-24T07:40:32.356Z,58.7
2018-09-24T07:41:32.464Z,58.66
2018-09-24T07:42:32.429Z,58.62
2018-09-24T07:43:34.007Z,58.65
2018-09-24T07:44:32.236Z,58.61
2018-09-24T07:45:32.565Z,58.59
2018-09-24T07:46:32.339Z,58.61
2018-09-24T07:47:32.649Z,58.58
2018-09-24T07:48:32.408Z,58.59
2018-09-24T07:49:32.933Z,58.58
2018-09-24T07:50:32.550Z,58.57
2018-09-24T07:51:32.636Z,58.55
2018-09-24T07:52:32.549Z,58.62
2018-09-24T07:53:32.474Z,58.58
2018-09-24T07:54:32.636Z,58.58
2018-09-24T07:55:33.767Z,58.61
2018-09-24T07:56:32.481Z,58.57
2018-09-24T07:57:32.623Z,58.57
2018-09-24T07:58:32.716Z,58.62
2018-09-24T07:59:32.875Z,58.59
2018-09-24T08:00:32.346Z,58.62
2018-09-24T08:01:32.608Z,58.65
2018-09-24T08:02:32.479Z,58.65
2018-09-24T08:03:32.620Z,58.59
2018-09-24T08:04:32.679Z,58.59
2018-09-24T08:05:32.629Z,58.65
2018-09-24T08:06:32.985Z,58.61
2018-09-24T08:07:33.796Z,58.58
2018-09-24T08:08:32.403Z,58.59
2018-09-24T08:09:32.852Z,58.57
2018-09-24T08:10:32.736Z,58.6
2018-09-24T08:11:32.707Z,58.63
2018-09-24T08:12:32.508Z,58.57
2018-09-24T08:13:32.574Z,58.57
2018-09-24T08:14:32.579Z,58.61
2018-09-24T08:15:32.653Z,58.6
2018-09-24T08:16:32.682Z,58.63
2018-09-24T08:17:32.636Z,58.52
2018-09-24T08:18:32.343Z,58.51
2018-09-24T08:19:32.618Z,58.61
2018-09-24T08:20:32.410Z,58.53
2018-09-24T08:21:32.859Z,58.55
2018-09-24T08:22:32.450Z,58.57
2018-09-24T08:23:32.418Z,58.56
2018-09-24T08:24:32.449Z,58.56
2018-09-24T08:25:32.519Z,58.59
2018-09-24T08:26:32.371Z,58.57
2018-09-24T08:27:32.898Z,58.57
2018-09-24T08:28:32.790Z,58.59
2018-09-24T08:29:32.548Z,58.57
2018-09-24T08:30:32.479Z,58.59
2018-09-24T08:31:32.921Z,58.57
2018-09-24T08:32:32.467Z,58.56
2018-09-24T08:33:32.545Z,58.58
2018-09-24T08:34:32.291Z,58.63
2018-09-24T08:35:32.720Z,58.55
2018-09-24T08:36:32.449Z,58.57
2018-09-24T08:37:32.711Z,58.59
2018-09-24T08:38:32.378Z,58.66
2018-09-24T08:39:32.766Z,58.64
2018-09-24T08:40:32.452Z,58.64
2018-09-24T08:41:32.885Z,58.63
2018-09-24T08:42:32.258Z,58.69
2018-09-24T08:43:32.860Z,58.72
2018-09-24T08:44:32.389Z,58.7
2018-09-24T08:45:32.659Z,58.71
2018-09-24T08:46:32.342Z,58.71
2018-09-24T08:47:32.299Z,58.65
2018-09-24T08:48:32.359Z,58.76
2018-09-24T08:49:32.735Z,58.37
2018-09-24T08:50:32.870Z,58.01
2018-09-24T08:51:32.379Z,56.47
2018-09-24T08:52:32.504Z,56.43
2018-09-24T08:53:32.629Z,56.66
2018-09-24T08:54:32.456Z,56.79
2018-09-24T08:55:32.420Z,56.76
2018-09-24T08:56:33.000Z,56.55
2018-09-24T08:57:32.537Z,56.39
2018-09-24T08:58:32.729Z,56.06
2018-09-24T08:59:32.789Z,55.83
2018-09-24T09:00:32.620Z,55.61
2018-09-24T09:01:32.587Z,55.4
2018-09-24T09:02:33.185Z,55.1
2018-09-24T09:03:32.450Z,55.08
2018-09-24T09:04:32.369Z,54.5
2018-09-24T09:05:32.428Z,54.18
2018-09-24T09:06:32.379Z,54.68
2018-09-24T09:07:32.587Z,55.18
2018-09-24T09:08:32.585Z,55.49
2018-09-24T09:09:32.501Z,55.69
2018-09-24T09:10:32.363Z,55.65
2018-09-24T09:11:32.583Z,55.82
2018-09-24T09:12:32.346Z,55.95
2018-09-24T09:13:32.459Z,55.8
2018-09-24T09:14:32.411Z,55.84
2018-09-24T09:15:32.511Z,55.96
2018-09-24T09:16:32.534Z,55.88
2018-09-24T09:17:32.350Z,55.99
2018-09-24T09:18:32.456Z,56.02
2018-09-24T09:19:32.352Z,56.08
2018-09-24T09:20:32.661Z,56.04
2018-09-24T09:21:32.996Z,56.21
2018-09-24T09:22:32.576Z,56.27
2018-09-24T09:23:32.503Z,56.28
2018-09-24T09:24:32.574Z,56.28
2018-09-24T09:25:32.421Z,56.46
2018-09-24T09:26:32.654Z,56.43
2018-09-24T09:27:32.448Z,56.51
2018-09-24T09:28:32.891Z,56.45
2018-09-24T09:29:33.717Z,56.51
2018-09-24T09:30:32.425Z,56.62
2018-09-24T09:31:32.671Z,56.56
2018-09-24T09:32:33.453Z,56.58
2018-09-24T09:33:32.530Z,56.59
2018-09-24T09:34:32.866Z,56.68
2018-09-24T09:35:32.510Z,56.74
2018-09-24T09:36:32.449Z,56.69
2018-09-24T09:37:32.470Z,56.79
2018-09-24T09:38:32.345Z,56.7
2018-09-24T09:39:32.935Z,56.79
2018-09-24T09:40:32.665Z,56.82
2018-09-24T09:41:32.476Z,56.76
2018-09-24T09:42:32.524Z,56.85
2018-09-24T09:43:32.713Z,56.89
2018-09-24T09:44:32.428Z,56.9
2018-09-24T09:45:32.534Z,56.94
2018-09-24T09:46:32.744Z,57.02
2018-09-24T09:47:32.561Z,57.05
2018-09-24T09:48:32.650Z,57.04
2018-09-24T09:49:32.442Z,57.14
2018-09-24T09:50:32.413Z,57.12
2018-09-24T09:51:32.527Z,57.13
2018-09-24T09:52:32.436Z,57.19
2018-09-24T09:53:33.443Z,56.98
2018-09-24T09:54:32.575Z,57.11
2018-09-24T09:55:32.487Z,57.16
2018-09-24T09:56:32.317Z,57.12
2018-09-24T09:57:33.020Z,57.11
2018-09-24T09:58:32.777Z,57.05
2018-09-24T09:59:32.733Z,57.18
2018-09-24T10:00:33.266Z,57.13
2018-09-24T10:01:32.824Z,57.11
2018-09-24T10:02:32.324Z,57.18
2018-09-24T10:03:32.462Z,57.15
2018-09-24T10:04:32.524Z,57.11
2018-09-24T10:05:32.348Z,57.11
2018-09-24T10:06:33.021Z,57.12
2018-09-24T10:07:32.422Z,57.13
2018-09-24T10:08:32.697Z,57.21
2018-09-24T10:09:32.532Z,57.13
2018-09-24T10:10:32.950Z,57.09
2018-09-24T10:11:32.530Z,57.15
2018-09-24T10:12:32.557Z,57.11
2018-09-24T10:13:32.700Z,57.17
2018-09-24T10:14:32.388Z,57.18
2018-09-24T10:15:32.777Z,57.17
2018-09-24T10:16:32.413Z,57.24
2018-09-24T10:17:32.926Z,57.23
2018-09-24T10:18:32.740Z,57.35
2018-09-24T10:19:32.462Z,57.31
2018-09-24T10:20:32.332Z,57.3
2018-09-24T10:21:32.558Z,57.26
2018-09-24T10:22:33.350Z,57.24
2018-09-24T10:23:32.425Z,57.26
2018-09-24T10:24:32.602Z,57.31
2018-09-24T10:25:32.417Z,57.32
2018-09-24T10:26:32.568Z,57.28
2018-09-24T10:27:32.513Z,57.3
2018-09-24T10:28:32.492Z,57.33
2018-09-24T10:29:32.732Z,57.35
2018-09-24T10:30:33.237Z,57.33
2018-09-24T10:31:32.663Z,57.38
2018-09-24T10:32:32.363Z,57.38
2018-09-24T10:33:33.398Z,57.35
2018-09-24T10:34:32.558Z,57.37
2018-09-24T10:35:32.621Z,57.13
2018-09-24T10:36:32.499Z,57.31
2018-09-24T10:37:32.760Z,57.36
2018-09-24T10:38:32.406Z,57.36
2018-09-24T10:39:33.113Z,57.38
2018-09-24T10:40:32.413Z,57.42
2018-09-24T10:41:32.449Z,57.35
2018-09-24T10:42:32.532Z,57.36
2018-09-24T10:43:32.489Z,57.32
2018-09-24T10:44:32.472Z,57.34
2018-09-24T10:45:32.330Z,57.3
2018-09-24T10:46:32.386Z,57.3
2018-09-24T10:47:32.360Z,57.26
2018-09-24T10:48:32.561Z,57.27
2018-09-24T10:49:32.471Z,57.23
2018-09-24T10:50:32.533Z,57.3
2018-09-24T10:51:32.484Z,57.32
2018-09-24T10:52:32.448Z,57.25
2018-09-24T10:53:32.569Z,57.23
2018-09-24T10:54:32.467Z,57.28
2018-09-24T10:55:32.470Z,57.21
2018-09-24T10:56:32.881Z,57.3
2018-09-24T10:57:32.520Z,57.31
2018-09-24T10:58:32.351Z,57.23
2018-09-24T10:59:33.997Z,57.28
2018-09-24T11:00:32.413Z,57.3
2018-09-24T11:01:32.527Z,57.25
2018-09-24T11:02:33.001Z,57.32
2018-09-24T11:03:32.863Z,57.31
2018-09-24T11:04:32.564Z,57.18
2018-09-24T11:05:32.592Z,57.26
2018-09-24T11:06:32.355Z,57.22
2018-09-24T11:07:32.693Z,57.16
2018-09-24T11:08:32.580Z,57.17
2018-09-24T11:09:32.629Z,57.08
2018-09-24T11:10:32.680Z,57.16
2018-09-24T11:11:32.256Z,57.19
2018-09-24T11:12:32.629Z,57.19
2018-09-24T11:13:32.534Z,57.17
2018-09-24T11:14:32.611Z,57.27
2018-09-24T11:15:32.616Z,57.22
2018-09-24T11:16:34.916Z,57.16
2018-09-24T11:17:35.540Z,57.21
2018-09-24T11:18:32.569Z,57.2
2018-09-24T11:19:33.062Z,57.19
2018-09-24T11:20:32.316Z,57.16
2018-09-24T11:21:32.899Z,57.2
2018-09-24T11:22:32.510Z,57.14
2018-09-24T11:23:33.078Z,57.12
2018-09-24T11:24:32.607Z,57.2
2018-09-24T11:25:32.459Z,57.23
2018-09-24T11:27:32.378Z,57.19
2018-09-24T11:28:32.943Z,57.13
2018-09-24T11:29:33.855Z,57.16
2018-09-24T11:30:32.647Z,56.75
2018-09-24T11:31:32.551Z,57.14
2018-09-24T11:32:32.595Z,57.17
2018-09-24T11:33:32.881Z,57.13
2018-09-24T11:34:32.404Z,57.05
2018-09-24T11:35:32.462Z,57.05
2018-09-24T11:36:32.478Z,57.05
2018-09-24T11:37:33.675Z,57.04
2018-09-24T11:38:32.601Z,57.05
2018-09-24T11:39:32.319Z,57
2018-09-24T11:40:32.359Z,57.02
2018-09-24T11:41:32.520Z,57.02
2018-09-24T11:42:33.543Z,57.05
2018-09-24T11:43:32.303Z,57.07
2018-09-24T11:44:32.473Z,57.1
2018-09-24T11:45:32.501Z,57.13
2018-09-24T11:46:33.894Z,57.1
2018-09-24T11:47:32.697Z,57.09
2018-09-24T11:48:32.543Z,57.13
2018-09-24T11:49:32.284Z,57.13
2018-09-24T11:50:32.475Z,57.16
2018-09-24T11:51:32.584Z,57.15
2018-09-24T11:52:32.347Z,57.19
2018-09-24T11:53:32.810Z,57.2
2018-09-24T11:54:32.662Z,57.26
2018-09-24T11:55:32.669Z,57.32
2018-09-24T11:56:32.932Z,57.27
2018-09-24T11:57:33.464Z,57.25
2018-09-24T11:58:32.926Z,57.24
2018-09-24T11:59:33.547Z,57.24
2018-09-24T12:00:32.360Z,57.23
2018-09-24T12:01:32.450Z,57.28
2018-09-24T12:02:32.699Z,57.22
2018-09-24T12:03:32.715Z,57.17
2018-09-24T12:04:32.639Z,57.26
2018-09-24T12:05:32.442Z,57.25
2018-09-24T12:06:32.396Z,57.23
2018-09-24T12:07:32.296Z,57.29
2018-09-24T12:08:32.273Z,57.34
2018-09-24T12:09:32.501Z,57.37
2018-09-24T12:10:33.173Z,56.77
2018-09-24T12:11:32.277Z,57.35
2018-09-24T12:12:32.863Z,57.45
2018-09-24T12:13:32.963Z,57.35
2018-09-24T12:14:32.483Z,57.27
2018-09-24T12:15:32.441Z,57.25
2018-09-24T12:16:32.385Z,57.29
2018-09-24T12:17:32.631Z,57.3
2018-09-24T12:18:32.453Z,57.33
2018-09-24T12:19:32.715Z,57.29
2018-09-24T12:20:32.522Z,57.32
2018-09-24T12:21:32.388Z,57.25
2018-09-24T12:22:32.635Z,57.27
2018-09-24T12:23:32.500Z,57.35
2018-09-24T12:24:32.421Z,57.24
2018-09-24T12:25:32.547Z,57.3
2018-09-24T12:26:32.752Z,57.3
2018-09-24T12:27:33.410Z,57.32
2018-09-24T12:28:32.441Z,57.33
2018-09-24T12:29:32.573Z,57.31
2018-09-24T12:30:32.448Z,57.34
2018-09-24T12:31:32.802Z,57.31
2018-09-24T12:32:32.465Z,57.36
2018-09-24T12:33:32.481Z,57.27
2018-09-24T12:34:32.229Z,57.34
2018-09-24T12:35:32.615Z,57.31
2018-09-24T12:36:32.636Z,57.37
2018-09-24T12:37:32.607Z,57.43
2018-09-24T12:38:33.010Z,57.42
2018-09-24T12:39:32.540Z,57.37
2018-09-24T12:40:32.357Z,57.38
2018-09-24T12:41:32.355Z,57.3
2018-09-24T12:42:32.584Z,57.38
2018-09-24T12:43:32.440Z,57.43
2018-09-24T12:44:32.458Z,57.39
2018-09-24T12:45:32.462Z,57.37
2018-09-24T12:46:32.522Z,57.42
2018-09-24T12:47:32.511Z,57.38
2018-09-24T12:48:32.709Z,57.4
2018-09-24T12:49:32.585Z,57.39
2018-09-24T12:50:32.410Z,57.39
2018-09-24T12:51:32.651Z,57.4
2018-09-24T12:52:32.518Z,57.44
2018-09-24T12:53:33.611Z,57.43
2018-09-24T12:54:32.668Z,57.41
2018-09-24T12:55:32.682Z,57.33
2018-09-24T12:56:32.459Z,57.38